sensor_id;sensor_type;location;lat;lon;timestamp;P1;durP1;ratioP1;P2;durP2;ratioP2
55497;SDS011;41357;52.806;18.268;2022-09-23T00:00:15;17.65;;;9.20;;
55497;SDS011;41357;52.806;18.268;2022-09-23T00:02:44;18.90;;;9.52;;
55497;SDS011;41357;52.806;18.268;2022-09-23T00:05:12;18.35;;;8.75;;
55497;SDS011;41357;52.806;18.268;2022-09-23T00:07:38;16.10;;;8.63;;
55497;SDS011;41357;52.806;18.268;2022-09-23T00:10:05;17.35;;;7.85;;
55497;SDS011;41357;52.806;18.268;2022-09-23T00:12:32;17.50;;;9.07;;
55497;SDS011;41357;52.806;18.268;2022-09-23T00:14:58;14.55;;;8.10;;
55497;SDS011;41357;52.806;18.268;2022-09-23T00:17:24;13.32;;;7.65;;
55497;SDS011;41357;52.806;18.268;2022-09-23T00:19:51;16.13;;;8.07;;
55497;SDS011;41357;52.806;18.268;2022-09-23T00:22:19;15.73;;;8.35;;
55497;SDS011;41357;52.806;18.268;2022-09-23T00:24:45;18.85;;;8.68;;
55497;SDS011;41357;52.806;18.268;2022-09-23T00:27:11;16.55;;;8.30;;
55497;SDS011;41357;52.806;18.268;2022-09-23T00:29:38;20.05;;;8.88;;
55497;SDS011;41357;52.806;18.268;2022-09-23T00:32:04;15.10;;;7.88;;
55497;SDS011;41357;52.806;18.268;2022-09-23T00:34:30;14.90;;;8.50;;
55497;SDS011;41357;52.806;18.268;2022-09-23T00:36:56;15.77;;;7.47;;
55497;SDS011;41357;52.806;18.268;2022-09-23T00:39:22;14.25;;;7.18;;
55497;SDS011;41357;52.806;18.268;2022-09-23T00:41:50;14.75;;;8.23;;
55497;SDS011;41357;52.806;18.268;2022-09-23T00:47:01;14.43;;;7.47;;
55497;SDS011;41357;52.806;18.268;2022-09-23T00:49:28;16.83;;;7.93;;
55497;SDS011;41357;52.806;18.268;2022-09-23T00:51:57;18.40;;;7.90;;
55497;SDS011;41357;52.806;18.268;2022-09-23T00:54:23;15.57;;;7.70;;
55497;SDS011;41357;52.806;18.268;2022-09-23T00:56:51;18.58;;;8.25;;
55497;SDS011;41357;52.806;18.268;2022-09-23T00:59:17;20.67;;;9.32;;
55497;SDS011;41357;52.806;18.268;2022-09-23T01:01:45;21.23;;;8.43;;
55497;SDS011;41357;52.806;18.268;2022-09-23T01:04:13;18.73;;;8.82;;
55497;SDS011;41357;52.806;18.268;2022-09-23T01:09:37;18.05;;;8.77;;
55497;SDS011;41357;52.806;18.268;2022-09-23T01:17:33;20.08;;;8.48;;
55497;SDS011;41357;52.806;18.268;2022-09-23T01:30:44;19.63;;;8.52;;
55497;SDS011;41357;52.806;18.268;2022-09-23T01:33:54;20.77;;;9.85;;
55497;SDS011;41357;52.806;18.268;2022-09-23T01:36:03;18.52;;;9.30;;
55497;SDS011;41357;52.806;18.268;2022-09-23T01:38:37;18.75;;;9.52;;
55497;SDS011;41357;52.806;18.268;2022-09-23T01:46:16;18.65;;;9.68;;
55497;SDS011;41357;52.806;18.268;2022-09-23T01:48:45;20.52;;;10.10;;
55497;SDS011;41357;52.806;18.268;2022-09-23T01:51:19;20.33;;;9.63;;
55497;SDS011;41357;52.806;18.268;2022-09-23T01:53:55;19.45;;;9.20;;
55497;SDS011;41357;52.806;18.268;2022-09-23T01:56:28;17.92;;;9.10;;
55497;SDS011;41357;52.806;18.268;2022-09-23T01:59:05;19.75;;;8.95;;
55497;SDS011;41357;52.806;18.268;2022-09-23T02:06:56;17.20;;;9.38;;
55497;SDS011;41357;52.806;18.268;2022-09-23T02:09:24;18.10;;;9.25;;
55497;SDS011;41357;52.806;18.268;2022-09-23T02:11:53;22.13;;;10.25;;
55497;SDS011;41357;52.806;18.268;2022-09-23T02:14:28;21.63;;;9.55;;
55497;SDS011;41357;52.806;18.268;2022-09-23T02:16:55;20.25;;;8.60;;
55497;SDS011;41357;52.806;18.268;2022-09-23T02:19:33;17.20;;;9.50;;
55497;SDS011;41357;52.806;18.268;2022-09-23T02:22:03;15.35;;;8.98;;
55497;SDS011;41357;52.806;18.268;2022-09-23T02:24:31;23.13;;;9.90;;
55497;SDS011;41357;52.806;18.268;2022-09-23T02:35:04;19.48;;;9.85;;
55497;SDS011;41357;52.806;18.268;2022-09-23T02:40:22;21.25;;;9.75;;
55497;SDS011;41357;52.806;18.268;2022-09-23T02:45:35;20.42;;;9.93;;
55497;SDS011;41357;52.806;18.268;2022-09-23T02:48:04;20.20;;;9.63;;
55497;SDS011;41357;52.806;18.268;2022-09-23T02:50:31;20.45;;;10.07;;
55497;SDS011;41357;52.806;18.268;2022-09-23T02:52:58;19.25;;;10.45;;
55497;SDS011;41357;52.806;18.268;2022-09-23T02:55:26;22.40;;;10.63;;
55497;SDS011;41357;52.806;18.268;2022-09-23T02:57:55;23.35;;;10.65;;
55497;SDS011;41357;52.806;18.268;2022-09-23T03:00:21;21.13;;;11.55;;
55497;SDS011;41357;52.806;18.268;2022-09-23T03:05:36;21.92;;;9.13;;
55497;SDS011;41357;52.806;18.268;2022-09-23T03:10:32;18.00;;;9.10;;
55497;SDS011;41357;52.806;18.268;2022-09-23T03:15:54;26.13;;;13.18;;
55497;SDS011;41357;52.806;18.268;2022-09-23T03:21:00;32.97;;;18.65;;
55497;SDS011;41357;52.806;18.268;2022-09-23T03:23:30;37.25;;;18.63;;
55497;SDS011;41357;52.806;18.268;2022-09-23T03:26:00;26.75;;;13.57;;
55497;SDS011;41357;52.806;18.268;2022-09-23T03:28:29;23.35;;;11.43;;
55497;SDS011;41357;52.806;18.268;2022-09-23T03:30:56;19.05;;;10.85;;
55497;SDS011;41357;52.806;18.268;2022-09-23T03:33:24;20.63;;;9.63;;
55497;SDS011;41357;52.806;18.268;2022-09-23T03:35:56;16.67;;;8.88;;
55497;SDS011;41357;52.806;18.268;2022-09-23T03:38:43;20.55;;;10.20;;
55497;SDS011;41357;52.806;18.268;2022-09-23T03:41:10;20.27;;;9.35;;
55497;SDS011;41357;52.806;18.268;2022-09-23T03:43:40;21.88;;;10.90;;
55497;SDS011;41357;52.806;18.268;2022-09-23T03:46:07;18.10;;;10.05;;
55497;SDS011;41357;52.806;18.268;2022-09-23T03:48:33;16.92;;;9.32;;
55497;SDS011;41357;52.806;18.268;2022-09-23T03:51:02;16.00;;;8.73;;
55497;SDS011;41357;52.806;18.268;2022-09-23T03:53:30;18.35;;;9.13;;
55497;SDS011;41357;52.806;18.268;2022-09-23T03:55:56;17.88;;;8.77;;
55497;SDS011;41357;52.806;18.268;2022-09-23T03:58:22;15.57;;;8.07;;
55497;SDS011;41357;52.806;18.268;2022-09-23T04:00:48;15.07;;;8.50;;
55497;SDS011;41357;52.806;18.268;2022-09-23T04:03:14;15.00;;;8.52;;
55497;SDS011;41357;52.806;18.268;2022-09-23T04:05:42;17.33;;;8.15;;
55497;SDS011;41357;52.806;18.268;2022-09-23T04:08:09;16.48;;;7.90;;
55497;SDS011;41357;52.806;18.268;2022-09-23T04:10:39;13.35;;;8.27;;
55497;SDS011;41357;52.806;18.268;2022-09-23T04:13:05;20.27;;;7.83;;
55497;SDS011;41357;52.806;18.268;2022-09-23T04:15:32;14.63;;;7.28;;
55497;SDS011;41357;52.806;18.268;2022-09-23T04:17:58;15.00;;;8.35;;
55497;SDS011;41357;52.806;18.268;2022-09-23T04:20:24;18.17;;;8.73;;
55497;SDS011;41357;52.806;18.268;2022-09-23T04:22:52;17.55;;;8.00;;
55497;SDS011;41357;52.806;18.268;2022-09-23T04:25:18;16.92;;;8.32;;
55497;SDS011;41357;52.806;18.268;2022-09-23T04:27:44;16.85;;;7.95;;
55497;SDS011;41357;52.806;18.268;2022-09-23T04:30:11;18.58;;;9.07;;
55497;SDS011;41357;52.806;18.268;2022-09-23T04:32:37;13.85;;;7.78;;
55497;SDS011;41357;52.806;18.268;2022-09-23T04:35:03;13.30;;;8.68;;
55497;SDS011;41357;52.806;18.268;2022-09-23T04:37:30;19.73;;;8.82;;
55497;SDS011;41357;52.806;18.268;2022-09-23T04:39:56;14.60;;;7.95;;
55497;SDS011;41357;52.806;18.268;2022-09-23T04:42:22;15.77;;;8.20;;
55497;SDS011;41357;52.806;18.268;2022-09-23T04:44:48;16.67;;;8.30;;
55497;SDS011;41357;52.806;18.268;2022-09-23T04:47:14;17.60;;;9.32;;
55497;SDS011;41357;52.806;18.268;2022-09-23T04:49:43;21.90;;;9.90;;
55497;SDS011;41357;52.806;18.268;2022-09-23T04:52:09;26.35;;;11.18;;
55497;SDS011;41357;52.806;18.268;2022-09-23T04:54:35;24.15;;;9.10;;
55497;SDS011;41357;52.806;18.268;2022-09-23T04:57:02;30.08;;;12.00;;
55497;SDS011;41357;52.806;18.268;2022-09-23T04:59:28;33.63;;;15.15;;
55497;SDS011;41357;52.806;18.268;2022-09-23T05:01:54;43.90;;;15.95;;
55497;SDS011;41357;52.806;18.268;2022-09-23T05:04:20;27.33;;;12.93;;
55497;SDS011;41357;52.806;18.268;2022-09-23T05:06:46;26.85;;;10.80;;
55497;SDS011;41357;52.806;18.268;2022-09-23T05:09:14;18.23;;;10.48;;
55497;SDS011;41357;52.806;18.268;2022-09-23T05:11:41;23.23;;;11.02;;
55497;SDS011;41357;52.806;18.268;2022-09-23T05:14:07;34.47;;;13.70;;
55497;SDS011;41357;52.806;18.268;2022-09-23T05:16:34;37.88;;;15.35;;
55497;SDS011;41357;52.806;18.268;2022-09-23T05:19:00;43.50;;;18.75;;
55497;SDS011;41357;52.806;18.268;2022-09-23T05:21:27;34.10;;;16.55;;
55497;SDS011;41357;52.806;18.268;2022-09-23T05:23:55;40.58;;;18.10;;
55497;SDS011;41357;52.806;18.268;2022-09-23T05:26:25;37.58;;;17.58;;
55497;SDS011;41357;52.806;18.268;2022-09-23T05:28:52;34.40;;;17.42;;
55497;SDS011;41357;52.806;18.268;2022-09-23T05:31:20;31.65;;;15.80;;
55497;SDS011;41357;52.806;18.268;2022-09-23T05:33:48;37.38;;;17.52;;
55497;SDS011;41357;52.806;18.268;2022-09-23T05:36:16;92.15;;;30.88;;
55497;SDS011;41357;52.806;18.268;2022-09-23T05:38:42;69.13;;;25.90;;
55497;SDS011;41357;52.806;18.268;2022-09-23T05:41:10;60.60;;;22.58;;
55497;SDS011;41357;52.806;18.268;2022-09-23T05:43:36;47.53;;;21.17;;
55497;SDS011;41357;52.806;18.268;2022-09-23T05:48:32;41.70;;;19.38;;
55497;SDS011;41357;52.806;18.268;2022-09-23T05:50:59;45.88;;;20.02;;
55497;SDS011;41357;52.806;18.268;2022-09-23T05:53:26;47.88;;;21.75;;
55497;SDS011;41357;52.806;18.268;2022-09-23T05:55:54;41.42;;;19.92;;
55497;SDS011;41357;52.806;18.268;2022-09-23T05:58:20;41.30;;;19.77;;
55497;SDS011;41357;52.806;18.268;2022-09-23T06:00:47;38.35;;;17.55;;
55497;SDS011;41357;52.806;18.268;2022-09-23T06:03:14;34.00;;;16.05;;
55497;SDS011;41357;52.806;18.268;2022-09-23T06:05:41;34.88;;;16.48;;
55497;SDS011;41357;52.806;18.268;2022-09-23T06:08:07;34.28;;;15.68;;
55497;SDS011;41357;52.806;18.268;2022-09-23T06:10:37;25.80;;;13.57;;
55497;SDS011;41357;52.806;18.268;2022-09-23T06:13:03;28.10;;;13.55;;
55497;SDS011;41357;52.806;18.268;2022-09-23T06:15:29;28.70;;;14.32;;
55497;SDS011;41357;52.806;18.268;2022-09-23T06:17:56;23.85;;;12.48;;
55497;SDS011;41357;52.806;18.268;2022-09-23T06:20:22;29.67;;;13.43;;
55497;SDS011;41357;52.806;18.268;2022-09-23T06:22:49;34.42;;;15.38;;
55497;SDS011;41357;52.806;18.268;2022-09-23T06:25:15;36.63;;;16.00;;
55497;SDS011;41357;52.806;18.268;2022-09-23T06:27:43;38.85;;;15.88;;
55497;SDS011;41357;52.806;18.268;2022-09-23T06:30:09;36.22;;;15.80;;
55497;SDS011;41357;52.806;18.268;2022-09-23T06:32:36;33.40;;;15.07;;
55497;SDS011;41357;52.806;18.268;2022-09-23T06:35:02;35.92;;;14.10;;
55497;SDS011;41357;52.806;18.268;2022-09-23T06:37:30;34.38;;;13.60;;
55497;SDS011;41357;52.806;18.268;2022-09-23T06:39:56;26.52;;;11.73;;
55497;SDS011;41357;52.806;18.268;2022-09-23T06:42:23;23.67;;;9.80;;
55497;SDS011;41357;52.806;18.268;2022-09-23T06:44:49;19.50;;;10.05;;
55497;SDS011;41357;52.806;18.268;2022-09-23T06:47:15;21.10;;;10.68;;
55497;SDS011;41357;52.806;18.268;2022-09-23T06:49:41;21.50;;;10.70;;
55497;SDS011;41357;52.806;18.268;2022-09-23T06:52:07;21.08;;;9.75;;
55497;SDS011;41357;52.806;18.268;2022-09-23T06:54:33;17.38;;;8.77;;
55497;SDS011;41357;52.806;18.268;2022-09-23T06:57:00;18.73;;;8.40;;
55497;SDS011;41357;52.806;18.268;2022-09-23T06:59:26;11.68;;;6.85;;
55497;SDS011;41357;52.806;18.268;2022-09-23T07:01:52;13.18;;;7.20;;
55497;SDS011;41357;52.806;18.268;2022-09-23T07:04:18;11.02;;;6.43;;
55497;SDS011;41357;52.806;18.268;2022-09-23T07:06:44;10.00;;;6.20;;
55497;SDS011;41357;52.806;18.268;2022-09-23T07:09:10;10.25;;;5.88;;
55497;SDS011;41357;52.806;18.268;2022-09-23T07:11:36;10.60;;;6.15;;
55497;SDS011;41357;52.806;18.268;2022-09-23T07:14:03;11.93;;;5.18;;
55497;SDS011;41357;52.806;18.268;2022-09-23T07:16:29;13.25;;;5.88;;
55497;SDS011;41357;52.806;18.268;2022-09-23T07:18:56;14.65;;;6.82;;
55497;SDS011;41357;52.806;18.268;2022-09-23T07:21:23;8.63;;;4.82;;
55497;SDS011;41357;52.806;18.268;2022-09-23T07:23:49;16.15;;;4.80;;
55497;SDS011;41357;52.806;18.268;2022-09-23T07:26:16;11.00;;;4.72;;
55497;SDS011;41357;52.806;18.268;2022-09-23T07:28:43;10.52;;;4.50;;
55497;SDS011;41357;52.806;18.268;2022-09-23T07:31:10;10.40;;;5.93;;
55497;SDS011;41357;52.806;18.268;2022-09-23T07:33:37;10.93;;;4.50;;
55497;SDS011;41357;52.806;18.268;2022-09-23T07:36:08;11.48;;;5.68;;
55497;SDS011;41357;52.806;18.268;2022-09-23T07:38:34;12.63;;;6.15;;
55497;SDS011;41357;52.806;18.268;2022-09-23T07:41:02;11.32;;;6.43;;
55497;SDS011;41357;52.806;18.268;2022-09-23T07:43:29;12.98;;;5.53;;
55497;SDS011;41357;52.806;18.268;2022-09-23T07:45:59;10.18;;;5.40;;
55497;SDS011;41357;52.806;18.268;2022-09-23T07:48:27;11.70;;;5.45;;
55497;SDS011;41357;52.806;18.268;2022-09-23T07:50:54;10.10;;;5.32;;
55497;SDS011;41357;52.806;18.268;2022-09-23T07:53:20;11.95;;;5.65;;
55497;SDS011;41357;52.806;18.268;2022-09-23T07:55:51;11.38;;;5.63;;
55497;SDS011;41357;52.806;18.268;2022-09-23T07:58:17;8.57;;;4.70;;
55497;SDS011;41357;52.806;18.268;2022-09-23T08:00:43;7.18;;;4.32;;
55497;SDS011;41357;52.806;18.268;2022-09-23T08:03:09;4.03;;;2.40;;
55497;SDS011;41357;52.806;18.268;2022-09-23T08:05:35;5.55;;;3.15;;
55497;SDS011;41357;52.806;18.268;2022-09-23T08:08:02;5.00;;;2.90;;
55497;SDS011;41357;52.806;18.268;2022-09-23T08:10:31;5.72;;;2.85;;
55497;SDS011;41357;52.806;18.268;2022-09-23T08:12:57;5.00;;;2.90;;
55497;SDS011;41357;52.806;18.268;2022-09-23T08:15:25;4.10;;;2.58;;
55497;SDS011;41357;52.806;18.268;2022-09-23T08:17:52;4.47;;;2.50;;
55497;SDS011;41357;52.806;18.268;2022-09-23T08:20:18;5.32;;;1.90;;
55497;SDS011;41357;52.806;18.268;2022-09-23T08:23:03;2.25;;;1.52;;
55497;SDS011;41357;52.806;18.268;2022-09-23T08:25:29;4.25;;;2.03;;
55497;SDS011;41357;52.806;18.268;2022-09-23T08:27:55;4.20;;;2.25;;
55497;SDS011;41357;52.806;18.268;2022-09-23T08:30:21;3.10;;;2.10;;
55497;SDS011;41357;52.806;18.268;2022-09-23T08:32:50;3.35;;;1.80;;
55497;SDS011;41357;52.806;18.268;2022-09-23T08:35:16;2.60;;;1.50;;
55497;SDS011;41357;52.806;18.268;2022-09-23T08:37:43;4.95;;;1.40;;
55497;SDS011;41357;52.806;18.268;2022-09-23T08:40:09;3.78;;;1.55;;
55497;SDS011;41357;52.806;18.268;2022-09-23T08:42:35;5.05;;;1.55;;
55497;SDS011;41357;52.806;18.268;2022-09-23T08:45:03;2.35;;;1.30;;
55497;SDS011;41357;52.806;18.268;2022-09-23T08:50:42;1.98;;;1.20;;
55497;SDS011;41357;52.806;18.268;2022-09-23T08:53:04;2.45;;;0.95;;
55497;SDS011;41357;52.806;18.268;2022-09-23T08:55:34;2.05;;;1.10;;
55497;SDS011;41357;52.806;18.268;2022-09-23T08:58:06;4.63;;;1.30;;
55497;SDS011;41357;52.806;18.268;2022-09-23T09:00:36;2.78;;;1.25;;
55497;SDS011;41357;52.806;18.268;2022-09-23T09:03:25;2.35;;;1.40;;
55497;SDS011;41357;52.806;18.268;2022-09-23T09:05:54;1.73;;;0.98;;
55497;SDS011;41357;52.806;18.268;2022-09-23T09:08:25;1.05;;;0.70;;
55497;SDS011;41357;52.806;18.268;2022-09-23T09:10:53;2.38;;;1.00;;
55497;SDS011;41357;52.806;18.268;2022-09-23T09:15:55;2.95;;;0.90;;
55497;SDS011;41357;52.806;18.268;2022-09-23T09:18:23;1.58;;;0.80;;
55497;SDS011;41357;52.806;18.268;2022-09-23T09:23:21;2.58;;;0.75;;
55497;SDS011;41357;52.806;18.268;2022-09-23T09:25:48;0.93;;;0.60;;
55497;SDS011;41357;52.806;18.268;2022-09-23T09:31:40;1.05;;;0.65;;
55497;SDS011;41357;52.806;18.268;2022-09-23T09:33:46;1.50;;;0.70;;
55497;SDS011;41357;52.806;18.268;2022-09-23T09:36:32;1.63;;;1.15;;
55497;SDS011;41357;52.806;18.268;2022-09-23T09:39:00;1.75;;;0.90;;
55497;SDS011;41357;52.806;18.268;2022-09-23T09:41:27;2.42;;;0.90;;
55497;SDS011;41357;52.806;18.268;2022-09-23T09:43:56;3.25;;;0.82;;
55497;SDS011;41357;52.806;18.268;2022-09-23T09:48:58;2.17;;;0.90;;
55497;SDS011;41357;52.806;18.268;2022-09-23T09:51:27;2.00;;;1.20;;
55497;SDS011;41357;52.806;18.268;2022-09-23T09:53:53;2.80;;;1.30;;
55497;SDS011;41357;52.806;18.268;2022-09-23T09:56:39;1.60;;;1.10;;
55497;SDS011;41357;52.806;18.268;2022-09-23T09:59:09;2.80;;;1.05;;
55497;SDS011;41357;52.806;18.268;2022-09-23T10:01:36;1.73;;;1.05;;
55497;SDS011;41357;52.806;18.268;2022-09-23T10:04:03;1.67;;;0.75;;
55497;SDS011;41357;52.806;18.268;2022-09-23T10:06:31;2.00;;;0.95;;
55497;SDS011;41357;52.806;18.268;2022-09-23T10:11:27;2.78;;;1.10;;
55497;SDS011;41357;52.806;18.268;2022-09-23T10:16:25;6.43;;;0.95;;
55497;SDS011;41357;52.806;18.268;2022-09-23T10:18:52;1.15;;;0.80;;
55497;SDS011;41357;52.806;18.268;2022-09-23T10:21:21;2.30;;;0.70;;
55497;SDS011;41357;52.806;18.268;2022-09-23T10:23:57;2.75;;;0.80;;
55497;SDS011;41357;52.806;18.268;2022-09-23T10:26:50;2.95;;;0.70;;
55497;SDS011;41357;52.806;18.268;2022-09-23T10:29:19;1.17;;;0.60;;
55497;SDS011;41357;52.806;18.268;2022-09-23T10:31:47;0.60;;;0.40;;
55497;SDS011;41357;52.806;18.268;2022-09-23T10:34:25;0.70;;;0.40;;
55497;SDS011;41357;52.806;18.268;2022-09-23T10:37:02;0.68;;;0.40;;
55497;SDS011;41357;52.806;18.268;2022-09-23T10:39:31;0.77;;;0.50;;
55497;SDS011;41357;52.806;18.268;2022-09-23T10:45:23;0.73;;;0.40;;
55497;SDS011;41357;52.806;18.268;2022-09-23T10:50:37;1.85;;;0.73;;
55497;SDS011;41357;52.806;18.268;2022-09-23T10:55:38;2.05;;;0.60;;
55497;SDS011;41357;52.806;18.268;2022-09-23T11:22:22;1.45;;;0.70;;
55497;SDS011;41357;52.806;18.268;2022-09-23T11:35:11;2.00;;;1.00;;
55497;SDS011;41357;52.806;18.268;2022-09-23T11:37:39;4.10;;;0.93;;
55497;SDS011;41357;52.806;18.268;2022-09-23T11:40:18;1.75;;;0.77;;
55497;SDS011;41357;52.806;18.268;2022-09-23T11:42:51;2.70;;;0.77;;
55497;SDS011;41357;52.806;18.268;2022-09-23T11:45:21;3.28;;;0.70;;
55497;SDS011;41357;52.806;18.268;2022-09-23T11:50:36;6.40;;;1.20;;
55497;SDS011;41357;52.806;18.268;2022-09-23T11:55:39;3.58;;;0.98;;
55497;SDS011;41357;52.806;18.268;2022-09-23T11:58:10;5.65;;;0.80;;
55497;SDS011;41357;52.806;18.268;2022-09-23T12:00:40;3.00;;;0.80;;
55497;SDS011;41357;52.806;18.268;2022-09-23T12:05:56;2.45;;;0.80;;
55497;SDS011;41357;52.806;18.268;2022-09-23T12:08:28;0.85;;;0.50;;
55497;SDS011;41357;52.806;18.268;2022-09-23T12:26:58;3.28;;;1.27;;
55497;SDS011;41357;52.806;18.268;2022-09-23T12:29:25;3.05;;;0.98;;
55497;SDS011;41357;52.806;18.268;2022-09-23T12:31:53;4.93;;;2.50;;
55497;SDS011;41357;52.806;18.268;2022-09-23T12:34:21;1.80;;;0.73;;
55497;SDS011;41357;52.806;18.268;2022-09-23T12:36:48;7.10;;;1.33;;
55497;SDS011;41357;52.806;18.268;2022-09-23T12:41:45;1.73;;;0.80;;
55497;SDS011;41357;52.806;18.268;2022-09-23T12:49:40;2.92;;;0.90;;
55497;SDS011;41357;52.806;18.268;2022-09-23T12:54:36;1.70;;;0.80;;
55497;SDS011;41357;52.806;18.268;2022-09-23T12:57:04;2.03;;;0.70;;
55497;SDS011;41357;52.806;18.268;2022-09-23T12:59:31;1.38;;;0.90;;
55497;SDS011;41357;52.806;18.268;2022-09-23T13:02:12;1.33;;;0.93;;
55497;SDS011;41357;52.806;18.268;2022-09-23T13:04:43;1.67;;;0.88;;
55497;SDS011;41357;52.806;18.268;2022-09-23T13:07:39;1.23;;;0.80;;
55497;SDS011;41357;52.806;18.268;2022-09-23T13:10:14;3.55;;;0.70;;
55497;SDS011;41357;52.806;18.268;2022-09-23T13:12:41;2.03;;;0.88;;
55497;SDS011;41357;52.806;18.268;2022-09-23T13:15:14;3.45;;;1.05;;
55497;SDS011;41357;52.806;18.268;2022-09-23T13:17:42;1.20;;;0.70;;
55497;SDS011;41357;52.806;18.268;2022-09-23T13:25:20;2.10;;;1.80;;
55497;SDS011;41357;52.806;18.268;2022-09-23T13:27:48;2.13;;;0.70;;
55497;SDS011;41357;52.806;18.268;2022-09-23T13:30:18;2.78;;;1.00;;
55497;SDS011;41357;52.806;18.268;2022-09-23T13:32:48;1.50;;;0.98;;
55497;SDS011;41357;52.806;18.268;2022-09-23T13:35:17;3.08;;;1.10;;
55497;SDS011;41357;52.806;18.268;2022-09-23T13:37:47;3.65;;;1.13;;
55497;SDS011;41357;52.806;18.268;2022-09-23T13:42:43;1.45;;;0.70;;
55497;SDS011;41357;52.806;18.268;2022-09-23T13:45:14;3.65;;;0.95;;
55497;SDS011;41357;52.806;18.268;2022-09-23T13:47:41;2.05;;;0.90;;
55497;SDS011;41357;52.806;18.268;2022-09-23T13:50:13;1.33;;;0.80;;
55497;SDS011;41357;52.806;18.268;2022-09-23T13:52:41;1.88;;;0.63;;
55497;SDS011;41357;52.806;18.268;2022-09-23T13:57:56;2.33;;;0.82;;
55497;SDS011;41357;52.806;18.268;2022-09-23T14:00:22;5.25;;;0.65;;
55497;SDS011;41357;52.806;18.268;2022-09-23T14:02:49;4.45;;;0.90;;
55497;SDS011;41357;52.806;18.268;2022-09-23T14:05:23;5.28;;;1.10;;
55497;SDS011;41357;52.806;18.268;2022-09-23T14:07:50;3.50;;;0.80;;
55497;SDS011;41357;52.806;18.268;2022-09-23T14:10:18;2.22;;;1.02;;
55497;SDS011;41357;52.806;18.268;2022-09-23T14:12:45;2.22;;;0.70;;
55497;SDS011;41357;52.806;18.268;2022-09-23T14:15:13;1.65;;;0.80;;
55497;SDS011;41357;52.806;18.268;2022-09-23T14:17:39;1.98;;;0.98;;
55497;SDS011;41357;52.806;18.268;2022-09-23T14:20:13;2.17;;;0.80;;
55497;SDS011;41357;52.806;18.268;2022-09-23T14:22:41;3.60;;;1.05;;
55497;SDS011;41357;52.806;18.268;2022-09-23T14:25:11;2.47;;;0.60;;
55497;SDS011;41357;52.806;18.268;2022-09-23T14:27:38;1.65;;;1.00;;
55497;SDS011;41357;52.806;18.268;2022-09-23T14:30:12;4.45;;;0.85;;
55497;SDS011;41357;52.806;18.268;2022-09-23T14:32:39;3.85;;;0.70;;
55497;SDS011;41357;52.806;18.268;2022-09-23T14:35:20;1.23;;;0.70;;
55497;SDS011;41357;52.806;18.268;2022-09-23T14:37:50;2.08;;;0.95;;
55497;SDS011;41357;52.806;18.268;2022-09-23T14:40:36;1.75;;;0.85;;
55497;SDS011;41357;52.806;18.268;2022-09-23T14:45:51;3.33;;;1.00;;
55497;SDS011;41357;52.806;18.268;2022-09-23T14:51:05;3.53;;;1.25;;
55497;SDS011;41357;52.806;18.268;2022-09-23T14:58:50;2.95;;;1.20;;
55497;SDS011;41357;52.806;18.268;2022-09-23T15:01:38;2.92;;;1.10;;
55497;SDS011;41357;52.806;18.268;2022-09-23T15:04:11;3.83;;;1.30;;
55497;SDS011;41357;52.806;18.268;2022-09-23T15:06:38;6.78;;;2.40;;
55497;SDS011;41357;52.806;18.268;2022-09-23T15:09:05;5.85;;;1.60;;
55497;SDS011;41357;52.806;18.268;2022-09-23T15:11:32;5.38;;;1.70;;
55497;SDS011;41357;52.806;18.268;2022-09-23T15:14:00;6.10;;;1.70;;
55497;SDS011;41357;52.806;18.268;2022-09-23T15:16:27;6.18;;;2.28;;
55497;SDS011;41357;52.806;18.268;2022-09-23T15:18:56;6.05;;;2.08;;
55497;SDS011;41357;52.806;18.268;2022-09-23T15:21:22;7.00;;;2.28;;
55497;SDS011;41357;52.806;18.268;2022-09-23T15:23:50;3.58;;;1.30;;
55497;SDS011;41357;52.806;18.268;2022-09-23T15:26:18;5.05;;;1.65;;
55497;SDS011;41357;52.806;18.268;2022-09-23T15:28:44;2.58;;;1.52;;
55497;SDS011;41357;52.806;18.268;2022-09-23T15:31:11;7.65;;;1.80;;
55497;SDS011;41357;52.806;18.268;2022-09-23T15:33:39;3.95;;;1.50;;
55497;SDS011;41357;52.806;18.268;2022-09-23T15:36:09;6.85;;;1.80;;
55497;SDS011;41357;52.806;18.268;2022-09-23T15:38:40;7.20;;;1.88;;
55497;SDS011;41357;52.806;18.268;2022-09-23T15:41:06;7.30;;;2.47;;
55497;SDS011;41357;52.806;18.268;2022-09-23T15:43:33;6.97;;;2.80;;
55497;SDS011;41357;52.806;18.268;2022-09-23T15:46:03;5.90;;;2.78;;
55497;SDS011;41357;52.806;18.268;2022-09-23T15:48:34;11.57;;;3.47;;
55497;SDS011;41357;52.806;18.268;2022-09-23T15:51:04;10.20;;;4.22;;
55497;SDS011;41357;52.806;18.268;2022-09-23T15:53:32;11.15;;;4.65;;
55497;SDS011;41357;52.806;18.268;2022-09-23T15:55:58;15.00;;;5.82;;
55497;SDS011;41357;52.806;18.268;2022-09-23T15:58:25;16.00;;;5.38;;
55497;SDS011;41357;52.806;18.268;2022-09-23T16:00:54;22.33;;;8.48;;
55497;SDS011;41357;52.806;18.268;2022-09-23T16:03:21;45.05;;;12.40;;
55497;SDS011;41357;52.806;18.268;2022-09-23T16:05:52;13.15;;;4.68;;
55497;SDS011;41357;52.806;18.268;2022-09-23T16:08:20;23.27;;;7.60;;
55497;SDS011;41357;52.806;18.268;2022-09-23T16:10:48;26.02;;;9.25;;
55497;SDS011;41357;52.806;18.268;2022-09-23T16:13:15;31.35;;;10.60;;
55497;SDS011;41357;52.806;18.268;2022-09-23T16:15:42;28.65;;;9.63;;
55497;SDS011;41357;52.806;18.268;2022-09-23T16:18:08;15.30;;;5.57;;
55497;SDS011;41357;52.806;18.268;2022-09-23T16:20:36;13.73;;;5.22;;
55497;SDS011;41357;52.806;18.268;2022-09-23T16:23:07;10.15;;;4.55;;
55497;SDS011;41357;52.806;18.268;2022-09-23T16:25:38;11.85;;;4.63;;
55497;SDS011;41357;52.806;18.268;2022-09-23T16:28:05;15.10;;;4.93;;
55497;SDS011;41357;52.806;18.268;2022-09-23T16:30:33;14.75;;;5.20;;
55497;SDS011;41357;52.806;18.268;2022-09-23T16:33:00;9.32;;;3.75;;
55497;SDS011;41357;52.806;18.268;2022-09-23T16:35:27;10.05;;;4.20;;
55497;SDS011;41357;52.806;18.268;2022-09-23T16:37:54;10.52;;;4.20;;
55497;SDS011;41357;52.806;18.268;2022-09-23T16:40:22;16.95;;;4.35;;
55497;SDS011;41357;52.806;18.268;2022-09-23T16:42:49;11.18;;;4.22;;
55497;SDS011;41357;52.806;18.268;2022-09-23T16:45:17;9.35;;;4.28;;
55497;SDS011;41357;52.806;18.268;2022-09-23T16:47:44;6.30;;;3.55;;
55497;SDS011;41357;52.806;18.268;2022-09-23T16:50:11;9.80;;;4.38;;
55497;SDS011;41357;52.806;18.268;2022-09-23T16:52:39;17.48;;;8.73;;
55497;SDS011;41357;52.806;18.268;2022-09-23T16:55:05;31.98;;;13.60;;
55497;SDS011;41357;52.806;18.268;2022-09-23T16:57:33;15.70;;;7.25;;
55497;SDS011;41357;52.806;18.268;2022-09-23T17:00:03;29.48;;;11.70;;
55497;SDS011;41357;52.806;18.268;2022-09-23T17:02:48;47.90;;;16.40;;
55497;SDS011;41357;52.806;18.268;2022-09-23T17:05:34;17.42;;;7.15;;
55497;SDS011;41357;52.806;18.268;2022-09-23T17:08:01;25.20;;;10.40;;
55497;SDS011;41357;52.806;18.268;2022-09-23T17:10:28;41.85;;;18.00;;
55497;SDS011;41357;52.806;18.268;2022-09-23T17:12:54;44.80;;;19.60;;
55497;SDS011;41357;52.806;18.268;2022-09-23T17:15:22;26.50;;;11.60;;
55497;SDS011;41357;52.806;18.268;2022-09-23T17:17:48;36.08;;;18.45;;
55497;SDS011;41357;52.806;18.268;2022-09-23T17:20:14;56.13;;;21.70;;
55497;SDS011;41357;52.806;18.268;2022-09-23T17:22:41;50.22;;;22.80;;
55497;SDS011;41357;52.806;18.268;2022-09-23T17:25:07;46.20;;;18.17;;
55497;SDS011;41357;52.806;18.268;2022-09-23T17:27:34;44.50;;;19.20;;